Pagrindinis puslapis
METAR-TAF:

METAR-TAF

Oro uostai :

Vojens, Danija

platuma: 55-14N, ilguma: 009-16E, Aukštis: 43 m

Dabartinis oras

Ataskaita buvo paskelbta 47 minutes, ne 12:50 UTC
Vėjas 8 kt iš Rytų/Šiaurės Rytų, svyruoja nuo Šiaurės Rytų ir Rytų/Pietryčių
Temperatūra 22°C
Drėgmė 41%
Slėgis 1027 hPa
Matomumas 10 km arba daugiau
nėra debesų žemiau 1500 m ir nėra kamuolinių lietaus debesų

METAR: EKSP 011250Z 07008KT 040V110 CAVOK 22/08 Q1027 RMK FEW200

Laikas: 15:37 (13:37 UTC)

Prognozė

Ataskaita buvo paskelbta 2 valandos ir 34 minutes, ne 11:03 UTC
Prognozė galioja nuo 01 metu 12 UTC su 02 metu 12 UTC
Vėjas 10 kt iš Rytų/Šiaurės Rytų
Matomumas 10 km arba daugiau
Išsisklaidę debesys ne aukštis 20000 ft
Tapsmas
nuo 01 metu 17 UTC su 01 metu 20 UTC
Vėjas 3 kt nuo kintamojo kryptimis

TAF: EKSP 011103Z 0112/0212 07010KT 9999 SCT200 BECMG 0117/0120 VRB03KT

Orai ataskaitas ir orų prognozės (METAR, TAF).

turimą stotys yra geltonos ir raudonos taškus žemėlapyje.

Perkelti pele per norėdami pamatyti stoties vardą.

Tada spustelėkite, norėdami matyti oro stebėjimo ir prognozės.

Norėdami pakeisti žemėlapį: spustelėkite ant žalios mygtukų su juodo kryžiaus žemyn,; žalią mygtuką su brūkšneliu, jei norite nutolinti; arba žalių rodyklių gretimoms žemėlapius.


METAR-TAF: